Terminal Aerodrome Forecast
Issued by NWS Sioux Falls, SD

Home | Current Version | Previous Version | Text Only | Print | Product List | Glossary On
Versions: 1 2 3 4 5 6 7 8 9 10 11 12 13 14 15 16 17 18 19 20
000
FTUS43 KFSD 191903 AAA
TAFFSD
TAF AMD
KFSD 191903Z 1919/2018 17010KT 1/2SM FG OVC003
      TEMPO 1919/1920 1SM BR OVC003
     FM192000 18011KT 1 1/2SM BR OVC003
      TEMPO 1920/1921 3/4SM BR
     FM200500 15008KT 1/2SM -DZ FG OVC002
     FM201600 15007KT 3/4SM -DZ BR OVC003=

USA.gov is the U.S. government's official web portal to all federal, state and local government web resources and services.